Time;durP1;ratioP1;P1;durP2;ratioP2;P2;SDS_P1;SDS_P2;PMS_P1;PMS_P2;Temp;Humidity;BMP_temperature;BMP_pressure;BME280_temperature;BME280_humidity;BME280_pressure;Samples;Min_cycle;Max_cycle;Signal;HPM_P1;HPM_P2
2023/06/28 00:02:20;;;;;;;;;;;23.90;46.80;;;;;;5038408;28;19960;-65
2023/06/28 00:04:47;;;;;;;;;;;23.90;46.80;;;;;;5054497;28;19927;-63
2023/06/28 00:07:14;;;;;;;;;;;23.90;47.40;;;;;;5038198;28;19982;-64
2023/06/28 00:09:40;;;;;;;;;;;23.90;46.80;;;;;;5036579;28;19975;-63
2023/06/28 00:12:07;;;;;;;;;;;23.90;46.80;;;;;;5039199;28;19928;-64
2023/06/28 00:14:34;;;;;;;;;;;23.90;46.80;;;;;;5038638;28;19921;-63
2023/06/28 00:17:01;;;;;;;;;;;23.90;46.80;;;;;;5038429;28;19920;-64
2023/06/28 00:19:30;;;;;;;;;;;23.90;46.80;;;;;;5038156;28;19921;-64
2023/06/28 00:21:57;;;;;;;;;;;23.80;46.80;;;;;;5028637;28;19927;-64
2023/06/28 00:24:24;;;;;;;;;;;23.90;46.80;;;;;;5018904;28;19968;-64
2023/06/28 00:26:51;;;;;;;;;;;23.90;46.80;;;;;;5038017;28;19928;-64
2023/06/28 00:29:18;;;;;;;;;;;23.80;46.80;;;;;;5054627;28;19920;-64
2023/06/28 00:31:44;;;;;;;;;;;23.90;46.80;;;;;;5054291;28;19967;-64
2023/06/28 00:34:11;;;;;;;;;;;23.90;46.90;;;;;;5036509;28;19943;-63
2023/06/28 00:36:39;;;;;;;;;;;23.90;47.40;;;;;;5035429;28;19920;-63
2023/06/28 00:39:06;;;;;;;;;;;23.90;46.80;;;;;;5036628;28;20329;-64
2023/06/28 00:41:33;;;;;;;;;;;23.80;46.70;;;;;;5037804;28;19929;-64
2023/06/28 00:43:59;;;;;;;;;;;23.90;46.80;;;;;;5037726;28;19921;-64
2023/06/28 00:46:26;;;;;;;;;;;23.90;46.80;;;;;;5037682;28;19920;-64
2023/06/28 00:48:53;;;;;;;;;;;23.80;46.70;;;;;;5034927;28;19931;-64
2023/06/28 00:51:20;;;;;;;;;;;23.90;46.80;;;;;;5017853;28;19971;-64
2023/06/28 00:53:48;;;;;;;;;;;23.80;46.80;;;;;;5050856;28;19971;-64
2023/06/28 00:56:15;;;;;;;;;;;23.90;46.90;;;;;;5035807;28;19921;-64
2023/06/28 00:58:42;;;;;;;;;;;23.90;46.90;;;;;;5035493;28;19921;-64
2023/06/28 01:01:10;;;;;;;;;;;23.80;46.80;;;;;;5036155;28;19928;-64
2023/06/28 01:03:37;;;;;;;;;;;23.90;46.90;;;;;;5053413;28;19920;-64
2023/06/28 01:06:04;;;;;;;;;;;23.80;46.80;;;;;;5037870;28;19955;-64
2023/06/28 01:08:30;;;;;;;;;;;23.80;46.80;;;;;;5037154;28;19920;-64
2023/06/28 01:10:58;;;;;;;;;;;23.80;46.80;;;;;;5053220;28;19920;-63
2023/06/28 01:13:25;;;;;;;;;;;23.80;46.80;;;;;;5053163;28;19921;-63
2023/06/28 01:15:52;;;;;;;;;;;23.80;46.80;;;;;;5035191;28;19920;-64
2023/06/28 01:18:21;;;;;;;;;;;23.80;46.80;;;;;;5054873;28;19920;-64
2023/06/28 01:20:48;;;;;;;;;;;23.80;46.80;;;;;;5035335;28;20023;-63
2023/06/28 01:23:16;;;;;;;;;;;23.80;46.80;;;;;;5036973;28;20028;-63
2023/06/28 01:25:43;;;;;;;;;;;23.80;46.80;;;;;;5035049;28;19967;-63
2023/06/28 01:28:09;;;;;;;;;;;23.80;46.80;;;;;;5036748;28;19924;-64
2023/06/28 01:30:37;;;;;;;;;;;23.80;46.80;;;;;;5037086;28;19921;-64
2023/06/28 01:33:03;;;;;;;;;;;23.80;46.80;;;;;;5037177;28;19924;-64
2023/06/28 01:35:31;;;;;;;;;;;23.80;46.80;;;;;;5034971;28;19921;-63
2023/06/28 01:37:58;;;;;;;;;;;23.80;46.80;;;;;;5037402;28;19921;-64
2023/06/28 01:40:27;;;;;;;;;;;23.80;46.80;;;;;;5043466;28;19921;-64
2023/06/28 01:42:54;;;;;;;;;;;23.80;46.80;;;;;;5037691;28;19956;-64
2023/06/28 01:45:21;;;;;;;;;;;23.80;46.80;;;;;;5024333;28;19921;-63
2023/06/28 01:47:47;;;;;;;;;;;23.80;46.80;;;;;;5015836;28;19921;-64
2023/06/28 01:50:15;;;;;;;;;;;23.80;46.80;;;;;;5029972;28;19929;-64
2023/06/28 01:52:42;;;;;;;;;;;23.80;46.80;;;;;;5036809;28;19927;-63
2023/06/28 01:55:11;;;;;;;;;;;23.80;46.80;;;;;;5052531;28;19947;-63
2023/06/28 01:57:39;;;;;;;;;;;23.80;46.80;;;;;;5037042;28;20003;-63
2023/06/28 02:00:08;;;;;;;;;;;23.80;46.80;;;;;;5036989;28;19924;-64
2023/06/28 02:02:35;;;;;;;;;;;23.80;46.90;;;;;;5034616;28;19921;-63
2023/06/28 02:05:02;;;;;;;;;;;23.80;46.90;;;;;;5034596;28;19921;-63
2023/06/28 02:07:30;;;;;;;;;;;23.80;46.90;;;;;;5034577;28;19959;-63
2023/06/28 02:09:56;;;;;;;;;;;23.80;46.90;;;;;;5028638;28;19943;-64
2023/06/28 02:12:23;;;;;;;;;;;23.80;46.90;;;;;;5035153;28;19928;-64
2023/06/28 02:14:52;;;;;;;;;;;23.80;47.00;;;;;;5034959;28;20006;-63
2023/06/28 02:17:20;;;;;;;;;;;23.80;46.90;;;;;;5052351;28;20023;-62
2023/06/28 02:19:47;;;;;;;;;;;23.80;47.00;;;;;;5053858;28;19921;-63
2023/06/28 02:22:14;;;;;;;;;;;23.80;47.00;;;;;;5051036;28;20371;-63
2023/06/28 02:24:41;;;;;;;;;;;23.80;47.00;;;;;;5034846;28;19921;-63
2023/06/28 02:27:08;;;;;;;;;;;23.80;47.00;;;;;;5052216;28;19921;-62
2023/06/28 02:29:35;;;;;;;;;;;23.80;47.00;;;;;;5051764;28;19956;-62
2023/06/28 02:32:03;;;;;;;;;;;23.80;47.10;;;;;;5036561;28;19925;-63
2023/06/28 02:34:30;;;;;;;;;;;23.80;47.00;;;;;;5054604;28;19921;-63
2023/06/28 02:36:57;;;;;;;;;;;23.80;47.10;;;;;;5037164;28;19920;-63
2023/06/28 02:39:23;;;;;;;;;;;23.80;47.10;;;;;;5036692;28;19927;-63
2023/06/28 02:41:50;;;;;;;;;;;23.80;47.10;;;;;;5034023;28;19921;-63
2023/06/28 02:44:17;;;;;;;;;;;23.80;47.10;;;;;;5032933;28;19921;-63
2023/06/28 02:46:44;;;;;;;;;;;23.80;47.20;;;;;;5032569;28;19928;-63
2023/06/28 02:49:12;;;;;;;;;;;23.80;47.10;;;;;;5033007;28;19928;-62
2023/06/28 02:51:39;;;;;;;;;;;23.80;47.20;;;;;;5032283;28;20329;-62
2023/06/28 02:54:05;;;;;;;;;;;23.70;47.70;;;;;;5032305;28;19928;-62
2023/06/28 02:56:32;;;;;;;;;;;23.80;47.20;;;;;;5032330;28;19924;-63
2023/06/28 02:58:59;;;;;;;;;;;23.80;47.20;;;;;;5051670;28;19925;-63
2023/06/28 03:01:26;;;;;;;;;;;23.80;47.20;;;;;;5052158;28;19925;-62
2023/06/28 03:03:53;;;;;;;;;;;23.70;47.10;;;;;;5036336;28;19963;-63
2023/06/28 03:06:21;;;;;;;;;;;23.80;47.20;;;;;;5037243;28;20371;-63
2023/06/28 03:08:48;;;;;;;;;;;23.80;47.20;;;;;;5055138;28;20314;-62
2023/06/28 03:11:14;;;;;;;;;;;23.70;47.20;;;;;;5055778;28;20236;-62
2023/06/28 03:13:41;;;;;;;;;;;23.80;47.30;;;;;;5053526;28;20355;-62
2023/06/28 03:16:09;;;;;;;;;;;23.70;47.20;;;;;;5037818;28;20362;-62
2023/06/28 03:18:36;;;;;;;;;;;23.80;47.40;;;;;;5033567;28;19963;-62
2023/06/28 03:21:03;;;;;;;;;;;23.80;47.40;;;;;;5036328;28;19921;-62
2023/06/28 03:23:31;;;;;;;;;;;23.80;47.40;;;;;;5054593;28;19921;-63
2023/06/28 03:25:58;;;;;;;;;;;23.80;47.40;;;;;;5034512;28;19920;-62
2023/06/28 03:28:25;;;;;;;;;;;23.80;47.40;;;;;;5053479;28;19931;-62
2023/06/28 03:30:52;;;;;;;;;;;23.80;47.40;;;;;;5035563;28;19952;-61
2023/06/28 03:33:19;;;;;;;;;;;23.80;47.40;;;;;;5033307;28;19921;-61
2023/06/28 03:35:45;;;;;;;;;;;23.80;47.50;;;;;;5054983;28;19921;-62
2023/06/28 03:38:12;;;;;;;;;;;23.80;47.50;;;;;;5035982;28;19928;-62
2023/06/28 03:40:40;;;;;;;;;;;23.70;47.40;;;;;;5036425;28;19921;-63
2023/06/28 03:43:07;;;;;;;;;;;23.80;47.50;;;;;;5037621;28;19947;-63
2023/06/28 03:45:35;;;;;;;;;;;23.80;47.50;;;;;;5038688;28;20364;-64
2023/06/28 03:48:01;;;;;;;;;;;23.70;47.50;;;;;;5039079;28;20259;-64
2023/06/28 03:50:28;;;;;;;;;;;23.70;47.50;;;;;;5039297;28;19944;-64
2023/06/28 03:52:55;;;;;;;;;;;23.70;47.60;;;;;;5039524;28;19932;-63
2023/06/28 03:55:21;;;;;;;;;;;23.70;47.50;;;;;;5039093;28;19921;-63
2023/06/28 03:57:50;;;;;;;;;;;23.70;47.60;;;;;;5038627;28;19920;-62
2023/06/28 04:00:17;;;;;;;;;;;23.70;47.60;;;;;;5031885;28;19990;-63
2023/06/28 04:02:44;;;;;;;;;;;23.70;47.60;;;;;;5018330;28;19953;-62
2023/06/28 04:05:11;;;;;;;;;;;23.70;47.60;;;;;;5041985;28;19921;-59
2023/06/28 04:07:38;;;;;;;;;;;23.70;47.60;;;;;;5035365;28;19921;-62
2023/06/28 04:10:05;;;;;;;;;;;23.70;47.60;;;;;;5035000;28;19921;-63
2023/06/28 04:12:31;;;;;;;;;;;23.70;47.70;;;;;;5034766;28;19925;-62
2023/06/28 04:15:01;;;;;;;;;;;23.70;47.70;;;;;;5034521;28;19947;-62
2023/06/28 04:17:27;;;;;;;;;;;23.70;47.70;;;;;;5035303;28;19924;-62
2023/06/28 04:19:54;;;;;;;;;;;23.70;47.90;;;;;;5025208;28;19921;-63
2023/06/28 04:22:21;;;;;;;;;;;23.70;47.70;;;;;;5026260;28;19921;-63
2023/06/28 04:24:48;;;;;;;;;;;23.70;47.70;;;;;;5034805;28;19978;-63
2023/06/28 04:27:14;;;;;;;;;;;23.70;47.70;;;;;;5035807;28;20333;-63
2023/06/28 04:29:41;;;;;;;;;;;23.70;47.70;;;;;;5026012;28;19928;-63
2023/06/28 04:32:21;;;;;;;;;;;23.70;47.70;;;;;;5032908;28;19921;-62
2023/06/28 04:34:49;;;;;;;;;;;23.70;47.70;;;;;;5032710;28;19920;-62
2023/06/28 04:37:18;;;;;;;;;;;23.70;47.70;;;;;;5053431;28;19920;-62
2023/06/28 04:39:44;;;;;;;;;;;23.70;47.70;;;;;;5039711;28;19921;-62
2023/06/28 04:42:13;;;;;;;;;;;23.70;47.80;;;;;;5033772;28;20019;-61
2023/06/28 04:44:41;;;;;;;;;;;23.70;47.80;;;;;;5034925;28;20297;-62
2023/06/28 04:47:08;;;;;;;;;;;23.70;47.80;;;;;;5039855;28;19928;-62
2023/06/28 04:49:37;;;;;;;;;;;23.70;47.80;;;;;;5052553;28;20027;-62
2023/06/28 04:52:04;;;;;;;;;;;23.70;47.80;;;;;;5035157;28;19921;-62
2023/06/28 04:54:30;;;;;;;;;;;23.70;47.80;;;;;;5028010;28;19940;-59
2023/06/28 04:56:57;;;;;;;;;;;23.70;47.80;;;;;;5035548;28;20002;-63
2023/06/28 04:59:24;;;;;;;;;;;23.70;47.90;;;;;;5035645;28;20012;-63
2023/06/28 05:01:51;;;;;;;;;;;23.70;47.90;;;;;;5033231;28;19920;-64
2023/06/28 05:04:17;;;;;;;;;;;23.70;47.90;;;;;;5030651;28;19921;-64
2023/06/28 05:06:46;;;;;;;;;;;23.70;47.90;;;;;;5044707;28;20385;-63
2023/06/28 05:09:12;;;;;;;;;;;23.70;47.90;;;;;;5036903;28;19921;-63
2023/06/28 05:11:39;;;;;;;;;;;23.70;48.00;;;;;;5055703;28;19921;-63
2023/06/28 05:14:06;;;;;;;;;;;23.70;48.00;;;;;;5040826;28;19950;-63
2023/06/28 05:16:33;;;;;;;;;;;23.70;48.00;;;;;;5034919;28;19970;-62
2023/06/28 05:18:59;;;;;;;;;;;23.70;48.00;;;;;;5040383;28;19921;-63
2023/06/28 05:21:26;;;;;;;;;;;23.70;48.10;;;;;;5037157;28;20031;-63
2023/06/28 05:23:54;;;;;;;;;;;23.70;48.10;;;;;;5036943;28;20019;-63
2023/06/28 05:26:21;;;;;;;;;;;23.70;48.10;;;;;;5054750;28;20003;-63
2023/06/28 05:28:48;;;;;;;;;;;23.70;48.10;;;;;;5054628;28;19921;-63
2023/06/28 05:31:14;;;;;;;;;;;23.70;48.20;;;;;;5034934;28;19928;-63
2023/06/28 05:33:41;;;;;;;;;;;23.70;48.80;;;;;;5037781;28;19924;-62
2023/06/28 05:36:08;;;;;;;;;;;23.70;48.20;;;;;;5036718;28;19921;-62
2023/06/28 05:38:35;;;;;;;;;;;23.70;48.20;;;;;;5054692;28;19928;-63
2023/06/28 05:41:13;;;;;;;;;;;23.70;48.30;;;;;;5052658;28;19928;-63
2023/06/28 05:43:39;;;;;;;;;;;23.70;48.30;;;;;;5034606;28;19920;-63
2023/06/28 05:46:06;;;;;;;;;;;23.70;48.30;;;;;;5034685;28;19924;-63
2023/06/28 05:48:33;;;;;;;;;;;23.70;48.30;;;;;;5036534;28;19921;-63
2023/06/28 05:51:00;;;;;;;;;;;23.70;48.30;;;;;;5036769;28;19947;-63
2023/06/28 05:53:27;;;;;;;;;;;23.70;48.30;;;;;;5036662;28;20337;-63
2023/06/28 05:55:53;;;;;;;;;;;23.70;48.40;;;;;;5055090;28;19974;-63
2023/06/28 05:58:22;;;;;;;;;;;23.70;48.40;;;;;;5057148;28;19977;-63
2023/06/28 06:00:49;;;;;;;;;;;23.70;48.40;;;;;;5041725;28;19920;-63
2023/06/28 06:03:15;;;;;;;;;;;23.70;48.40;;;;;;5031219;28;20406;-62
2023/06/28 06:05:42;;;;;;;;;;;23.70;48.40;;;;;;5041362;28;19927;-63
2023/06/28 06:08:09;;;;;;;;;;;23.70;48.50;;;;;;5053966;28;19986;-63
2023/06/28 06:10:35;;;;;;;;;;;23.70;48.50;;;;;;5056186;28;20405;-64
2023/06/28 06:13:02;;;;;;;;;;;23.70;48.50;;;;;;5052837;28;19921;-62
2023/06/28 06:15:31;;;;;;;;;;;23.70;48.50;;;;;;5034951;28;19921;-62
2023/06/28 06:17:57;;;;;;;;;;;23.70;48.60;;;;;;5035818;28;19927;-63
2023/06/28 06:20:24;;;;;;;;;;;23.70;48.60;;;;;;5036378;28;20424;-63
2023/06/28 06:22:51;;;;;;;;;;;23.70;48.60;;;;;;5030295;28;19975;-62
2023/06/28 06:25:18;;;;;;;;;;;23.70;48.60;;;;;;5034005;28;19929;-63
2023/06/28 06:27:45;;;;;;;;;;;23.70;48.70;;;;;;5056809;28;19927;-63
2023/06/28 06:30:12;;;;;;;;;;;23.70;48.70;;;;;;5055769;28;19974;-63
2023/06/28 06:32:40;;;;;;;;;;;23.70;48.70;;;;;;5052702;28;20359;-62
2023/06/28 06:35:07;;;;;;;;;;;23.70;48.70;;;;;;5032404;28;19986;-62
2023/06/28 06:37:34;;;;;;;;;;;23.70;48.70;;;;;;5035994;28;19971;-63
2023/06/28 06:40:01;;;;;;;;;;;23.70;48.80;;;;;;5035937;28;20379;-63
2023/06/28 06:42:27;;;;;;;;;;;23.70;48.80;;;;;;5035624;28;20377;-63
2023/06/28 06:44:54;;;;;;;;;;;23.70;48.80;;;;;;5034011;28;20197;-63
2023/06/28 06:47:21;;;;;;;;;;;23.70;48.80;;;;;;5036174;28;19947;-62
2023/06/28 06:49:49;;;;;;;;;;;23.70;48.80;;;;;;5053746;28;19921;-63
2023/06/28 06:52:16;;;;;;;;;;;23.70;48.80;;;;;;5053337;28;19949;-63
2023/06/28 06:54:42;;;;;;;;;;;23.70;48.80;;;;;;5051593;28;19924;-63
2023/06/28 06:57:09;;;;;;;;;;;23.70;48.80;;;;;;5035992;28;19921;-63
2023/06/28 06:59:36;;;;;;;;;;;23.70;48.80;;;;;;5053563;28;19925;-63
2023/06/28 07:02:03;;;;;;;;;;;23.70;48.90;;;;;;5035427;28;19927;-62
2023/06/28 07:04:30;;;;;;;;;;;23.70;48.80;;;;;;5035420;28;19924;-62
2023/06/28 07:06:58;;;;;;;;;;;23.70;48.80;;;;;;5053501;28;19931;-62
2023/06/28 07:09:26;;;;;;;;;;;23.70;48.80;;;;;;5035832;28;19920;-62
2023/06/28 07:11:53;;;;;;;;;;;23.70;48.80;;;;;;5035690;28;19971;-62
2023/06/28 07:14:20;;;;;;;;;;;23.70;48.80;;;;;;5035595;28;19921;-61
2023/06/28 07:16:46;;;;;;;;;;;23.70;48.90;;;;;;5035652;28;19925;-62
2023/06/28 07:19:13;;;;;;;;;;;23.70;48.80;;;;;;5035507;28;20279;-63
2023/06/28 07:21:40;;;;;;;;;;;23.70;48.80;;;;;;5032930;28;19924;-63
2023/06/28 07:24:08;;;;;;;;;;;23.80;48.80;;;;;;5035537;28;19924;-62
2023/06/28 07:26:35;;;;;;;;;;;23.80;48.90;;;;;;5035438;28;20317;-62
2023/06/28 07:29:02;;;;;;;;;;;23.80;48.80;;;;;;5036237;28;19960;-62
2023/06/28 07:31:28;;;;;;;;;;;23.80;48.90;;;;;;5035575;28;19921;-62
2023/06/28 07:33:55;;;;;;;;;;;23.80;48.90;;;;;;5036305;28;19936;-62
2023/06/28 07:36:22;;;;;;;;;;;23.80;48.90;;;;;;5035413;28;20375;-63
2023/06/28 07:38:50;;;;;;;;;;;23.80;48.80;;;;;;5052644;28;19921;-61
2023/06/28 07:41:18;;;;;;;;;;;23.80;48.80;;;;;;5055518;28;19931;-62
2023/06/28 07:43:45;;;;;;;;;;;23.80;48.80;;;;;;5056154;28;19920;-62
2023/06/28 07:46:11;;;;;;;;;;;23.80;48.90;;;;;;5057173;28;19920;-62
2023/06/28 07:48:38;;;;;;;;;;;23.80;48.80;;;;;;5058736;28;19921;-63
2023/06/28 07:51:05;;;;;;;;;;;23.80;48.80;;;;;;5059157;28;19921;-62
2023/06/28 07:53:32;;;;;;;;;;;23.80;48.80;;;;;;5058535;28;19963;-62
2023/06/28 07:55:59;;;;;;;;;;;23.70;48.80;;;;;;5076723;28;19943;-62
2023/06/28 07:58:27;;;;;;;;;;;23.80;48.80;;;;;;5058346;28;20409;-62
2023/06/28 08:00:53;;;;;;;;;;;23.80;48.80;;;;;;5058888;28;20266;-63
2023/06/28 08:03:20;;;;;;;;;;;23.80;48.80;;;;;;5058791;28;19926;-62
2023/06/28 08:05:47;;;;;;;;;;;23.80;48.80;;;;;;5058368;28;19990;-62
2023/06/28 08:08:14;;;;;;;;;;;23.80;48.80;;;;;;5058506;28;19920;-63
2023/06/28 08:10:40;;;;;;;;;;;23.80;48.80;;;;;;5075930;28;20330;-62
2023/06/28 08:13:07;;;;;;;;;;;23.80;48.80;;;;;;5058351;28;19925;-63
2023/06/28 08:15:36;;;;;;;;;;;23.80;48.80;;;;;;5058260;28;19920;-63
2023/06/28 08:18:05;;;;;;;;;;;23.80;48.80;;;;;;5058860;28;19970;-63
2023/06/28 08:20:33;;;;;;;;;;;23.80;48.80;;;;;;5057082;28;19966;-58
2023/06/28 08:23:00;;;;;;;;;;;23.80;48.80;;;;;;5020420;28;19921;-62
2023/06/28 08:25:26;;;;;;;;;;;23.80;48.70;;;;;;5056094;28;19920;-63
2023/06/28 08:27:53;;;;;;;;;;;23.80;48.80;;;;;;5038752;28;19947;-63
2023/06/28 08:30:20;;;;;;;;;;;23.80;48.70;;;;;;5038337;28;19974;-62
2023/06/28 08:32:48;;;;;;;;;;;23.80;48.70;;;;;;5037971;28;19925;-62
2023/06/28 08:35:15;;;;;;;;;;;23.80;48.70;;;;;;5038310;28;20309;-63
2023/06/28 08:37:42;;;;;;;;;;;23.80;48.70;;;;;;5038654;28;19921;-63
2023/06/28 08:40:09;;;;;;;;;;;23.80;48.70;;;;;;5036165;28;19927;-63
2023/06/28 08:42:35;;;;;;;;;;;23.80;49.20;;;;;;5037801;28;19943;-63
2023/06/28 08:45:02;;;;;;;;;;;23.80;48.60;;;;;;5037833;28;19921;-62
2023/06/28 08:47:30;;;;;;;;;;;23.80;48.70;;;;;;5055780;28;19921;-62
2023/06/28 08:49:58;;;;;;;;;;;23.80;48.70;;;;;;5037276;28;20023;-62
2023/06/28 08:52:24;;;;;;;;;;;23.80;48.60;;;;;;5038252;28;19920;-63
2023/06/28 08:54:52;;;;;;;;;;;23.80;48.60;;;;;;5035782;28;19925;-62
2023/06/28 08:57:18;;;;;;;;;;;23.80;48.60;;;;;;5055017;28;20336;-62
2023/06/28 08:59:45;;;;;;;;;;;23.80;49.20;;;;;;5038034;28;19998;-63
2023/06/28 09:02:13;;;;;;;;;;;23.80;48.60;;;;;;5039703;28;19927;-63
2023/06/28 09:04:40;;;;;;;;;;;23.80;48.60;;;;;;5039467;28;19967;-64
2023/06/28 09:07:08;;;;;;;;;;;23.80;48.60;;;;;;5056924;28;19927;-63
2023/06/28 09:09:35;;;;;;;;;;;23.80;48.60;;;;;;5040200;28;20004;-63
2023/06/28 09:12:02;;;;;;;;;;;23.80;48.60;;;;;;5039909;28;20115;-63
2023/06/28 09:14:30;;;;;;;;;;;23.80;48.60;;;;;;5038607;28;19920;-64
2023/06/28 09:16:57;;;;;;;;;;;23.80;48.60;;;;;;5035783;28;19921;-62
2023/06/28 09:19:23;;;;;;;;;;;23.80;48.60;;;;;;5040806;28;19943;-62
2023/06/28 09:21:50;;;;;;;;;;;23.80;48.60;;;;;;5038310;28;19921;-62
2023/06/28 09:24:19;;;;;;;;;;;23.80;48.60;;;;;;5038810;28;19963;-62
2023/06/28 09:26:46;;;;;;;;;;;23.80;48.60;;;;;;5039688;28;19921;-63
2023/06/28 09:29:13;;;;;;;;;;;23.80;48.60;;;;;;5040079;28;19928;-63
2023/06/28 09:31:40;;;;;;;;;;;23.80;48.60;;;;;;5040964;28;19968;-63
2023/06/28 09:34:07;;;;;;;;;;;23.80;48.60;;;;;;5038471;28;19924;-63
2023/06/28 09:36:35;;;;;;;;;;;23.80;48.60;;;;;;5038613;28;19921;-63
2023/06/28 09:39:04;;;;;;;;;;;23.90;48.70;;;;;;5056488;28;19928;-63
2023/06/28 09:41:39;;;;;;;;;;;23.80;48.60;;;;;;5041244;28;20355;-63
2023/06/28 09:44:06;;;;;;;;;;;23.80;48.60;;;;;;5039418;28;20027;-63
2023/06/28 09:46:33;;;;;;;;;;;23.80;48.60;;;;;;5038217;28;19999;-64
2023/06/28 09:49:00;;;;;;;;;;;23.80;48.60;;;;;;5039295;28;19924;-63
2023/06/28 09:51:27;;;;;;;;;;;23.80;48.60;;;;;;5043073;28;19921;-63
2023/06/28 09:53:54;;;;;;;;;;;23.90;48.70;;;;;;5060239;28;19921;-62
2023/06/28 09:56:20;;;;;;;;;;;23.80;48.60;;;;;;5022929;28;19921;-63
2023/06/28 09:58:49;;;;;;;;;;;23.90;48.70;;;;;;5038263;28;19928;-63
2023/06/28 10:01:15;;;;;;;;;;;23.90;48.60;;;;;;5039770;28;19921;-64
2023/06/28 10:03:42;;;;;;;;;;;23.90;48.60;;;;;;5038625;28;19928;-63
2023/06/28 10:06:09;;;;;;;;;;;23.90;48.60;;;;;;5040649;28;19932;-64
2023/06/28 10:08:36;;;;;;;;;;;23.90;48.60;;;;;;5056237;28;19920;-63
2023/06/28 10:11:03;;;;;;;;;;;23.80;48.50;;;;;;5039050;28;19921;-61
2023/06/28 10:13:29;;;;;;;;;;;23.80;49.10;;;;;;5037414;28;19925;-62
2023/06/28 10:15:59;;;;;;;;;;;23.80;48.50;;;;;;5038399;28;19927;-64
2023/06/28 10:18:26;;;;;;;;;;;23.90;48.60;;;;;;5038281;28;20029;-63
2023/06/28 10:20:53;;;;;;;;;;;23.90;48.60;;;;;;5039550;28;19920;-63
2023/06/28 10:23:20;;;;;;;;;;;23.90;48.70;;;;;;5053462;28;19931;-63
2023/06/28 10:25:47;;;;;;;;;;;23.90;48.60;;;;;;5038127;28;19974;-63
2023/06/28 10:28:13;;;;;;;;;;;23.90;48.60;;;;;;5029014;28;19974;-62
2023/06/28 10:30:41;;;;;;;;;;;23.90;48.60;;;;;;5036301;28;19920;-63
2023/06/28 10:33:09;;;;;;;;;;;23.80;48.60;;;;;;5036323;28;19921;-63
2023/06/28 10:35:35;;;;;;;;;;;23.80;48.60;;;;;;5034287;28;20321;-63
2023/06/28 10:38:02;;;;;;;;;;;23.90;48.70;;;;;;5033876;28;20297;-63
2023/06/28 10:40:29;;;;;;;;;;;23.90;48.70;;;;;;5035888;28;20506;-63
2023/06/28 10:42:55;;;;;;;;;;;23.80;48.60;;;;;;5051840;28;19928;-63
2023/06/28 10:45:32;;;;;;;;;;;23.90;48.70;;;;;;5034241;28;19921;-63
2023/06/28 10:47:59;;;;;;;;;;;23.90;48.70;;;;;;5018595;28;19921;-64
2023/06/28 10:50:27;;;;;;;;;;;23.90;48.70;;;;;;5016036;28;19921;-62
2023/06/28 10:52:54;;;;;;;;;;;23.90;48.70;;;;;;5025124;28;19921;-62
2023/06/28 10:55:21;;;;;;;;;;;23.90;48.70;;;;;;5051601;28;19932;-62
2023/06/28 10:57:47;;;;;;;;;;;23.90;48.70;;;;;;5029929;28;19947;-62
2023/06/28 11:00:33;;;;;;;;;;;23.90;48.60;;;;;;5048284;28;19921;-62
2023/06/28 11:03:03;;;;;;;;;;;23.90;48.60;;;;;;5033617;28;19929;-62
2023/06/28 11:05:38;;;;;;;;;;;23.90;48.60;;;;;;5032881;28;19928;-62
2023/06/28 11:08:09;;;;;;;;;;;23.90;48.50;;;;;;5033841;28;20391;-62
2023/06/28 11:10:39;;;;;;;;;;;23.90;48.50;;;;;;5048553;28;19947;-61
2023/06/28 11:13:08;;;;;;;;;;;23.90;48.50;;;;;;5033622;28;19971;-62
2023/06/28 11:15:35;;;;;;;;;;;23.90;48.50;;;;;;5035677;28;19927;-62
2023/06/28 11:18:09;;;;;;;;;;;23.90;48.40;;;;;;5035255;28;19921;-62
2023/06/28 11:20:46;;;;;;;;;;;23.90;48.40;;;;;;5035567;28;19970;-62
2023/06/28 11:23:23;;;;;;;;;;;23.90;48.40;;;;;;5023659;28;20368;-62
2023/06/28 11:25:50;;;;;;;;;;;23.90;48.40;;;;;;5033342;28;20004;-62
2023/06/28 11:28:22;;;;;;;;;;;23.90;48.40;;;;;;5039283;28;19921;-63
2023/06/28 11:30:50;;;;;;;;;;;23.90;48.40;;;;;;5039993;28;20365;-62
2023/06/28 11:33:17;;;;;;;;;;;23.90;48.50;;;;;;5053172;28;19928;-62
2023/06/28 11:35:44;;;;;;;;;;;23.90;48.50;;;;;;5057242;28;20015;-62
2023/06/28 11:38:13;;;;;;;;;;;23.90;48.50;;;;;;5039157;28;19929;-63
2023/06/28 11:40:39;;;;;;;;;;;23.90;48.50;;;;;;5036685;28;19970;-62
2023/06/28 11:43:06;;;;;;;;;;;23.90;48.40;;;;;;5038854;28;19921;-63
2023/06/28 11:45:33;;;;;;;;;;;23.90;48.50;;;;;;5037085;28;19970;-62
2023/06/28 11:48:00;;;;;;;;;;;23.90;48.50;;;;;;5037377;28;19935;-62
2023/06/28 11:50:26;;;;;;;;;;;23.90;48.50;;;;;;5034649;28;19921;-62
2023/06/28 11:52:53;;;;;;;;;;;23.90;48.50;;;;;;5057030;28;19921;-62
2023/06/28 11:55:21;;;;;;;;;;;23.90;48.50;;;;;;5037185;28;19921;-62
2023/06/28 11:57:48;;;;;;;;;;;23.90;48.40;;;;;;5052621;28;19925;-62
2023/06/28 12:00:15;;;;;;;;;;;23.90;48.40;;;;;;5039774;28;19928;-64
2023/06/28 12:02:48;;;;;;;;;;;23.90;48.40;;;;;;5056586;28;19978;-62
2023/06/28 12:05:16;;;;;;;;;;;23.90;48.40;;;;;;5049717;28;19945;-62
2023/06/28 12:07:44;;;;;;;;;;;23.90;48.30;;;;;;5040019;28;19928;-62
2023/06/28 12:10:11;;;;;;;;;;;24.00;48.40;;;;;;5036382;28;19921;-62
2023/06/28 12:12:41;;;;;;;;;;;23.90;48.30;;;;;;5037218;28;19921;-62
2023/06/28 12:15:09;;;;;;;;;;;23.90;48.30;;;;;;5048611;28;20020;-62
2023/06/28 12:17:38;;;;;;;;;;;23.90;48.30;;;;;;5043827;28;20436;-62
2023/06/28 12:20:06;;;;;;;;;;;23.90;48.20;;;;;;5055880;28;19929;-62
2023/06/28 12:22:38;;;;;;;;;;;23.90;48.20;;;;;;5038414;28;19924;-62
2023/06/28 12:25:05;;;;;;;;;;;23.90;48.20;;;;;;5036808;28;19931;-62
2023/06/28 12:27:32;;;;;;;;;;;23.90;48.20;;;;;;5036508;28;19924;-62
2023/06/28 12:30:00;;;;;;;;;;;24.00;48.30;;;;;;5036350;28;19921;-63
2023/06/28 12:32:27;;;;;;;;;;;24.00;48.20;;;;;;5037223;28;20275;-63
2023/06/28 12:34:53;;;;;;;;;;;23.90;48.10;;;;;;5038899;28;19921;-63
2023/06/28 12:37:21;;;;;;;;;;;23.90;48.10;;;;;;5055888;28;19996;-63
2023/06/28 12:39:48;;;;;;;;;;;23.90;48.10;;;;;;5039204;28;19920;-63
2023/06/28 12:42:18;;;;;;;;;;;23.90;48.00;;;;;;5038445;28;19970;-63
2023/06/28 12:44:49;;;;;;;;;;;24.00;48.10;;;;;;5037804;28;19920;-62
2023/06/28 12:47:18;;;;;;;;;;;23.90;48.10;;;;;;5037957;28;19927;-63
2023/06/28 12:49:45;;;;;;;;;;;24.00;48.10;;;;;;5037679;28;20279;-62
2023/06/28 12:52:12;;;;;;;;;;;24.00;48.10;;;;;;5037595;28;19925;-62
2023/06/28 12:54:39;;;;;;;;;;;24.00;48.20;;;;;;5055778;28;19925;-63
2023/06/28 12:57:06;;;;;;;;;;;24.00;48.10;;;;;;5053671;28;19943;-63
2023/06/28 12:59:33;;;;;;;;;;;23.90;48.10;;;;;;5035405;28;20337;-63
2023/06/28 13:02:00;;;;;;;;;;;23.90;48.10;;;;;;5037606;28;20015;-63
2023/06/28 13:04:28;;;;;;;;;;;23.90;48.10;;;;;;5055296;28;19966;-63
2023/06/28 13:06:55;;;;;;;;;;;24.00;48.10;;;;;;5037448;28;19971;-63
2023/06/28 13:09:22;;;;;;;;;;;24.00;48.20;;;;;;5038026;28;19920;-63
2023/06/28 13:11:49;;;;;;;;;;;24.00;48.10;;;;;;5037982;28;19943;-63
2023/06/28 13:14:15;;;;;;;;;;;24.00;48.10;;;;;;5037526;28;19921;-62
2023/06/28 13:16:42;;;;;;;;;;;24.00;48.10;;;;;;5038374;28;19925;-64
2023/06/28 13:19:09;;;;;;;;;;;24.00;48.10;;;;;;5037257;28;19925;-62
2023/06/28 13:21:38;;;;;;;;;;;24.00;48.10;;;;;;5035154;28;19921;-63
2023/06/28 13:24:05;;;;;;;;;;;24.00;48.10;;;;;;5037134;28;19947;-64
2023/06/28 13:26:31;;;;;;;;;;;24.00;48.10;;;;;;5055166;28;19921;-63
2023/06/28 13:28:58;;;;;;;;;;;24.00;48.00;;;;;;5055138;28;19920;-63
2023/06/28 13:31:25;;;;;;;;;;;24.00;48.00;;;;;;5036967;28;19974;-62
2023/06/28 13:33:52;;;;;;;;;;;24.00;48.00;;;;;;5036803;28;19920;-63
2023/06/28 13:36:19;;;;;;;;;;;24.00;47.90;;;;;;5036969;28;19978;-62
2023/06/28 13:38:48;;;;;;;;;;;24.00;47.90;;;;;;5037317;28;19971;-63
2023/06/28 13:41:14;;;;;;;;;;;24.00;47.90;;;;;;5036477;28;19921;-62
2023/06/28 13:43:41;;;;;;;;;;;24.00;47.80;;;;;;5035684;28;19924;-62
2023/06/28 13:46:08;;;;;;;;;;;24.00;47.80;;;;;;5037546;28;20405;-62
2023/06/28 13:48:35;;;;;;;;;;;24.00;47.70;;;;;;5037736;28;19928;-62
2023/06/28 13:51:01;;;;;;;;;;;24.00;47.70;;;;;;5036382;28;19982;-62
2023/06/28 13:53:28;;;;;;;;;;;24.00;47.70;;;;;;5034907;28;19927;-62
2023/06/28 13:55:58;;;;;;;;;;;24.00;47.70;;;;;;5037048;28;19925;-62
2023/06/28 13:58:26;;;;;;;;;;;24.00;47.70;;;;;;5037172;28;19921;-64
2023/06/28 14:00:53;;;;;;;;;;;24.00;47.70;;;;;;5037521;28;19967;-63
2023/06/28 14:03:20;;;;;;;;;;;24.00;47.70;;;;;;5037163;28;19964;-63
2023/06/28 14:05:47;;;;;;;;;;;24.00;47.70;;;;;;5036417;28;20322;-62
2023/06/28 14:08:14;;;;;;;;;;;24.00;47.70;;;;;;5036374;28;19920;-63
2023/06/28 14:10:41;;;;;;;;;;;24.00;47.60;;;;;;5036357;28;19970;-64
2023/06/28 14:13:09;;;;;;;;;;;24.00;47.60;;;;;;5053843;28;19921;-63
2023/06/28 14:15:36;;;;;;;;;;;24.00;47.60;;;;;;5034542;28;19971;-63
2023/06/28 14:18:03;;;;;;;;;;;24.00;47.60;;;;;;5054131;28;20337;-63